Time;durP1;ratioP1;P1;durP2;ratioP2;P2;SDS_P1;SDS_P2;PMS_P1;PMS_P2;Temp;Humidity;BMP_temperature;BMP_pressure;BME280_temperature;BME280_humidity;BME280_pressure;Samples;Min_cycle;Max_cycle;Signal;HPM_P1;HPM_P2
2022/03/01 00:01:56;;;;;;;0.00;0.00;;;;;21.90;100216.00;;;;4786013;29;20065;-83
2022/03/01 00:04:27;;;;;;;0.00;0.00;;;;;21.90;100230.00;;;;4801696;29;20057;-85
2022/03/01 00:06:57;;;;;;;0.00;0.00;;;;;22.00;100243.00;;;;4801819;29;20055;-84
2022/03/01 00:09:29;;;;;;;0.00;0.00;;;;;22.00;100230.00;;;;4802016;29;20134;-83
2022/03/01 00:11:58;;;;;;;0.00;0.00;;;;;21.90;100241.00;;;;4801696;29;20564;-83
2022/03/01 00:14:31;;;;;;;0.00;0.00;;;;;21.90;100250.00;;;;4801902;29;20094;-84
2022/03/01 00:17:01;;;;;;;0.00;0.00;;;;;22.00;100252.00;;;;4801692;29;20055;-84
2022/03/01 00:20:04;;;;;;;0.00;0.00;;;;;21.90;100284.00;;;;4785848;29;20531;-83
2022/03/01 00:22:34;;;;;;;0.00;0.00;;;;;21.90;100270.00;;;;4785353;29;20054;-84
2022/03/01 00:25:05;;;;;;;0.00;0.00;;;;;21.90;100269.00;;;;4801608;29;20054;-83
2022/03/01 00:27:35;;;;;;;0.00;0.00;;;;;21.90;100264.00;;;;4785266;29;20051;-82
2022/03/01 00:30:05;;;;;;;0.00;0.00;;;;;21.90;100252.00;;;;4801584;29;20047;-84
2022/03/01 00:32:37;;;;;;;0.00;0.00;;;;;21.90;100268.00;;;;4793475;29;20154;-83
2022/03/01 00:35:07;;;;;;;0.00;0.00;;;;;21.90;100273.00;;;;4819760;29;20061;-84
2022/03/01 00:41:43;;;;;;;0.00;0.00;;;;;22.00;100271.00;;;;4819052;29;20529;-84
2022/03/01 00:44:13;;;;;;;0.00;0.00;;;;;22.00;100270.00;;;;4818862;29;20094;-84
2022/03/01 00:46:44;;;;;;;0.00;0.00;;;;;22.00;100247.00;;;;4819641;29;20038;-84
2022/03/01 00:49:14;;;;;;;0.00;0.00;;;;;22.00;100255.00;;;;4819450;29;20400;-83
2022/03/01 00:51:44;;;;;;;0.00;0.00;;;;;22.00;100264.00;;;;4819530;29;20616;-84
2022/03/01 00:54:13;;;;;;;0.00;0.00;;;;;22.00;100264.00;;;;4828512;29;20038;-82
2022/03/01 00:56:43;;;;;;;0.00;0.00;;;;;22.00;100280.00;;;;4835435;29;20046;-83
2022/03/01 00:59:12;;;;;;;0.00;0.00;;;;;22.00;100270.00;;;;4818869;29;20070;-83
2022/03/01 01:01:42;;;;;;;0.00;0.00;;;;;22.00;100289.00;;;;4819438;29;20093;-84
2022/03/01 01:04:11;;;;;;;0.00;0.00;;;;;22.00;100291.00;;;;4802313;29;20587;-82
2022/03/01 01:06:42;;;;;;;0.00;0.00;;;;;22.00;100292.00;;;;4819323;29;20113;-82
2022/03/01 01:09:14;;;;;;;0.00;0.00;;;;;22.00;100303.00;;;;4819089;29;20091;-83
2022/03/01 01:11:44;;;;;;;0.00;0.00;;;;;22.00;100290.00;;;;4803489;29;20062;-84
2022/03/01 01:14:14;;;;;;;0.00;0.00;;;;;22.00;100284.00;;;;4819376;29;20126;-81
2022/03/01 01:16:44;;;;;;;0.00;0.00;;;;;22.00;100290.00;;;;4819570;29;20426;-84
2022/03/01 01:19:13;;;;;;;0.00;0.00;;;;;22.00;100288.00;;;;4803203;29;20042;-85
2022/03/01 01:24:31;;;;;;;0.00;0.00;;;;;22.00;100314.00;;;;4818569;29;20059;-83
2022/03/01 01:27:00;;;;;;;0.00;0.00;;;;;22.00;100334.00;;;;4818683;29;20895;-82
2022/03/01 01:29:29;;;;;;;0.00;0.00;;;;;21.90;100332.00;;;;4818882;29;20069;-84
2022/03/01 01:31:59;;;;;;;0.00;0.00;;;;;21.90;100334.00;;;;4817705;29;20107;-81
2022/03/01 01:34:28;;;;;;;0.00;0.00;;;;;21.90;100330.00;;;;4816882;29;20105;-83
2022/03/01 01:36:57;;;;;;;0.00;0.00;;;;;21.90;100324.00;;;;4818221;29;20506;-81
2022/03/01 01:39:27;;;;;;;0.00;0.00;;;;;21.80;100317.00;;;;4818224;29;20144;-84
2022/03/01 01:41:56;;;;;;;0.00;0.00;;;;;21.80;100318.00;;;;4802724;29;20430;-83
2022/03/01 01:44:29;;;;;;;0.00;0.00;;;;;21.70;100339.00;;;;4816792;29;20066;-82
2022/03/01 01:46:59;;;;;;;0.00;0.00;;;;;21.70;100350.00;;;;4787354;29;20055;-83
2022/03/01 01:49:28;;;;;;;0.00;0.00;;;;;21.70;100357.00;;;;4802558;29;20426;-82
2022/03/01 01:51:58;;;;;;;0.00;0.00;;;;;21.70;100355.00;;;;4817324;29;20057;-84
2022/03/01 01:54:29;;;;;;;0.00;0.00;;;;;21.70;100354.00;;;;4818856;29;20043;-84
2022/03/01 01:57:02;;;;;;;0.00;0.00;;;;;21.70;100339.00;;;;4819798;29;20073;-84
2022/03/01 01:59:32;;;;;;;0.00;0.00;;;;;21.70;100341.00;;;;4817789;29;20134;-82
2022/03/01 02:02:01;;;;;;;0.00;0.00;;;;;21.70;100332.00;;;;4818804;29;20168;-81
2022/03/01 02:04:31;;;;;;;0.00;0.00;;;;;21.70;100342.00;;;;4801881;29;20066;-80
2022/03/01 02:07:00;;;;;;;0.00;0.00;;;;;21.70;100341.00;;;;4819230;29;20077;-82
2022/03/01 02:09:30;;;;;;;0.00;0.00;;;;;21.70;100323.00;;;;4818332;29;20469;-81
2022/03/01 02:12:02;;;;;;;0.03;0.03;;;;;21.70;100324.00;;;;4818263;29;20054;-84
2022/03/01 02:14:37;;;;;;;0.00;0.00;;;;;21.70;100341.00;;;;4817462;29;20110;-83
2022/03/01 02:17:10;;;;;;;0.00;0.00;;;;;21.70;100339.00;;;;4819024;29;20078;-82
2022/03/01 02:19:46;;;;;;;0.00;0.00;;;;;21.70;100348.00;;;;4801103;29;20622;-82
2022/03/01 02:22:17;;;;;;;0.00;0.00;;;;;21.70;100351.00;;;;4818861;29;20038;-84
2022/03/01 02:24:46;;;;;;;0.00;0.00;;;;;21.70;100346.00;;;;4801924;29;20058;-82
2022/03/01 02:27:16;;;;;;;0.00;0.00;;;;;21.70;100342.00;;;;4801663;29;20442;-84
2022/03/01 02:29:45;;;;;;;0.00;0.00;;;;;21.80;100354.00;;;;4801241;29;20050;-85
2022/03/01 02:32:14;;;;;;;0.00;0.00;;;;;21.80;100352.00;;;;4817038;29;20065;-83
2022/03/01 02:34:44;;;;;;;0.00;0.00;;;;;21.80;100331.00;;;;4818489;29;20043;-83
2022/03/01 02:37:13;;;;;;;0.00;0.00;;;;;21.90;100341.00;;;;4817977;29;20053;-85
2022/03/01 02:39:43;;;;;;;0.00;0.00;;;;;21.90;100343.00;;;;4817724;29;20050;-84
2022/03/01 02:42:12;;;;;;;0.00;0.00;;;;;21.90;100342.00;;;;4818913;29;20053;-83
2022/03/01 02:44:42;;;;;;;0.00;0.00;;;;;21.80;100325.00;;;;4817236;29;20061;-84
2022/03/01 02:47:11;;;;;;;0.00;0.00;;;;;21.90;100341.00;;;;4800890;29;20553;-83
2022/03/01 02:49:41;;;;;;;0.00;0.00;;;;;21.80;100340.00;;;;4817670;29;20042;-83
2022/03/01 02:52:13;;;;;;;0.00;0.00;;;;;21.80;100340.00;;;;4818446;29;20121;-83
2022/03/01 02:54:45;;;;;;;0.00;0.00;;;;;21.80;100348.00;;;;4816363;29;20578;-83
2022/03/01 02:57:15;;;;;;;0.00;0.00;;;;;21.80;100351.00;;;;4801231;29;20050;-83
2022/03/01 02:59:47;;;;;;;0.00;0.00;;;;;21.80;100362.00;;;;4816899;29;20050;-82
2022/03/01 03:02:18;;;;;;;0.00;0.00;;;;;21.80;100360.00;;;;4801035;29;20566;-83
2022/03/01 03:04:48;;;;;;;0.00;0.00;;;;;21.80;100344.00;;;;4817355;29;20708;-86
2022/03/01 03:07:18;;;;;;;0.00;0.00;;;;;21.80;100358.00;;;;4818402;29;20054;-84
2022/03/01 03:09:47;;;;;;;0.00;0.00;;;;;21.80;100335.00;;;;4818427;29;20042;-86
2022/03/01 03:12:18;;;;;;;0.00;0.00;;;;;21.90;100336.00;;;;4817519;29;20687;-82
2022/03/01 03:14:48;;;;;;;;;;;;;22.00;100342.00;;;;4816658;29;20046;-83
2022/03/01 03:17:17;;;;;;;0.00;0.00;;;;;22.00;100336.00;;;;4817174;29;19964;-83
2022/03/01 03:19:47;;;;;;;0.00;0.00;;;;;22.00;100334.00;;;;4817701;29;20074;-83
2022/03/01 03:22:17;;;;;;;0.00;0.00;;;;;22.00;100339.00;;;;4816762;29;20103;-83
2022/03/01 03:24:47;;;;;;;0.00;0.00;;;;;21.90;100345.00;;;;4815768;29;20181;-83
2022/03/01 03:27:16;;;;;;;0.00;0.00;;;;;21.90;100323.00;;;;4835432;29;20104;-82
2022/03/01 03:29:48;;;;;;;0.00;0.00;;;;;21.90;100326.00;;;;4826519;29;20051;-82
2022/03/01 03:32:17;;;;;;;0.00;0.00;;;;;21.90;100318.00;;;;4817748;29;20538;-83
2022/03/01 03:34:49;;;;;;;0.00;0.00;;;;;21.90;100324.00;;;;4816682;29;20437;-83
2022/03/01 03:37:19;;;;;;;0.00;0.00;;;;;21.80;100320.00;;;;4815384;29;20038;-83
2022/03/01 03:39:51;;;;;;;0.00;0.00;;;;;21.80;100324.00;;;;4817456;29;20578;-83
2022/03/01 03:42:21;;;;;;;0.00;0.00;;;;;21.80;100335.00;;;;4816769;29;20050;-82
2022/03/01 03:44:55;;;;;;;0.00;0.00;;;;;21.80;100322.00;;;;4816590;29;20554;-85
2022/03/01 03:47:25;;;;;;;0.00;0.00;;;;;21.90;100315.00;;;;4817542;29;20043;-86
2022/03/01 03:49:54;;;;;;;0.00;0.00;;;;;21.90;100312.00;;;;4818654;29;20404;-86
2022/03/01 03:52:32;;;;;;;0.00;0.00;;;;;21.80;100330.00;;;;4821243;29;20752;-83
2022/03/01 03:55:02;;;;;;;0.00;0.00;;;;;21.80;100317.00;;;;4820166;29;20115;-82
2022/03/01 03:57:33;;;;;;;0.00;0.00;;;;;21.80;100318.00;;;;4820591;29;20046;-82
2022/03/01 04:00:06;;;;;;;0.00;0.00;;;;;21.80;100333.00;;;;4820362;29;20050;-85
2022/03/01 04:02:36;;;;;;;0.00;0.00;;;;;21.80;100320.00;;;;4812822;29;20096;-84
2022/03/01 04:05:07;;;;;;;0.00;0.00;;;;;21.80;100334.00;;;;4820550;29;20114;-83
2022/03/01 04:07:40;;;;;;;0.00;0.00;;;;;21.80;100315.00;;;;4813216;29;20532;-86
2022/03/01 04:10:14;;;;;;;0.00;0.00;;;;;21.80;100336.00;;;;4821226;29;20418;-83
2022/03/01 04:12:43;;;;;;;0.00;0.00;;;;;21.80;100325.00;;;;4820609;29;20046;-86
2022/03/01 04:15:13;;;;;;;0.00;0.00;;;;;21.70;100319.00;;;;4819769;29;20114;-86
2022/03/01 04:17:42;;;;;;;0.00;0.00;;;;;21.70;100302.00;;;;4820278;29;20055;-84
2022/03/01 04:20:12;;;;;;;0.00;0.00;;;;;21.70;100289.00;;;;4818582;29;20069;-83
2022/03/01 04:22:42;;;;;;;0.00;0.00;;;;;21.70;100309.00;;;;4819584;29;20086;-86
2022/03/01 04:25:11;;;;;;;0.00;0.00;;;;;21.70;100305.00;;;;4820229;29;20058;-84
2022/03/01 04:27:41;;;;;;;0.00;0.00;;;;;21.70;100294.00;;;;4820160;29;20054;-85
2022/03/01 04:30:15;;;;;;;0.00;0.00;;;;;21.70;100291.00;;;;4820296;29;20058;-83
2022/03/01 04:32:47;;;;;;;0.00;0.00;;;;;21.70;100288.00;;;;4818753;29;20054;-86
2022/03/01 04:35:17;;;;;;;0.00;0.00;;;;;21.70;100275.00;;;;4818477;29;20054;-82
2022/03/01 04:37:47;;;;;;;0.00;0.00;;;;;21.70;100284.00;;;;4803505;29;20058;-83
2022/03/01 04:40:18;;;;;;;0.00;0.00;;;;;21.70;100288.00;;;;4818255;29;20149;-86
2022/03/01 04:42:47;;;;;;;0.00;0.00;;;;;21.70;100276.00;;;;4818806;29;20929;-86
2022/03/01 04:45:16;;;;;;;0.00;0.00;;;;;21.60;100266.00;;;;4817645;29;20062;-83
2022/03/01 04:47:46;;;;;;;0.00;0.00;;;;;21.70;100287.00;;;;4818170;29;20503;-83
2022/03/01 04:50:15;;;;;;;0.00;0.00;;;;;21.70;100272.00;;;;4819416;29;20065;-83
2022/03/01 04:52:45;;;;;;;0.00;0.00;;;;;21.70;100271.00;;;;4818840;29;20042;-83
2022/03/01 04:55:15;;;;;;;0.00;0.00;;;;;21.70;100269.00;;;;4818770;29;20133;-84
2022/03/01 04:57:45;;;;;;;0.00;0.00;;;;;21.70;100282.00;;;;4819146;29;20051;-83
2022/03/01 05:00:17;;;;;;;0.00;0.00;;;;;21.70;100267.00;;;;4817354;29;20438;-83
2022/03/01 05:02:47;;;;;;;0.00;0.00;;;;;21.70;100279.00;;;;4818187;29;20519;-83
2022/03/01 05:05:17;;;;;;;0.00;0.00;;;;;21.60;100269.00;;;;4819028;29;20050;-83
2022/03/01 05:07:50;;;;;;;0.00;0.00;;;;;21.60;100281.00;;;;4817317;29;20054;-83
2022/03/01 05:10:21;;;;;;;0.00;0.00;;;;;21.60;100272.00;;;;4818593;29;20544;-83
2022/03/01 05:12:55;;;;;;;0.00;0.00;;;;;21.50;100280.00;;;;4818330;29;20400;-83
2022/03/01 05:15:27;;;;;;;0.00;0.00;;;;;21.60;100298.00;;;;4818261;29;20064;-83
2022/03/01 05:17:58;;;;;;;0.00;0.00;;;;;21.50;100278.00;;;;4818132;29;20513;-83
2022/03/01 05:20:30;;;;;;;0.00;0.00;;;;;21.50;100274.00;;;;4817846;29;20131;-83
2022/03/01 05:22:59;;;;;;;0.00;0.00;;;;;21.50;100252.00;;;;4819317;29;20086;-83
2022/03/01 05:25:29;;;;;;;0.00;0.00;;;;;21.50;100269.00;;;;4818846;29;20814;-82
2022/03/01 05:28:00;;;;;;;0.00;0.00;;;;;21.50;100269.00;;;;4817816;29;20062;-84
2022/03/01 05:30:30;;;;;;;0.00;0.00;;;;;21.60;100268.00;;;;4818294;29;20499;-83
2022/03/01 05:33:00;;;;;;;0.00;0.00;;;;;21.60;100257.00;;;;4817673;29;20125;-83
2022/03/01 05:35:32;;;;;;;0.00;0.00;;;;;21.60;100251.00;;;;4818649;29;20077;-84
2022/03/01 05:38:05;;;;;;;0.00;0.00;;;;;21.60;100249.00;;;;4819081;29;20051;-83
2022/03/01 05:40:34;;;;;;;0.00;0.00;;;;;21.60;100261.00;;;;4818699;29;20054;-84
2022/03/01 05:43:07;;;;;;;0.00;0.00;;;;;21.60;100253.00;;;;4818431;29;20050;-83
2022/03/01 05:45:37;;;;;;;0.00;0.00;;;;;21.60;100285.00;;;;4811477;29;20118;-84
2022/03/01 05:48:07;;;;;;;0.00;0.00;;;;;21.60;100272.00;;;;4819088;29;20069;-84
2022/03/01 05:50:37;;;;;;;0.00;0.00;;;;;21.50;100286.00;;;;4787387;29;20530;-84
2022/03/01 05:53:06;;;;;;;0.00;0.00;;;;;21.50;100273.00;;;;4819059;29;20046;-84
2022/03/01 05:55:36;;;;;;;0.00;0.00;;;;;21.50;100290.00;;;;4818413;29;20046;-84
2022/03/01 05:58:05;;;;;;;0.00;0.00;;;;;21.50;100281.00;;;;4820508;29;20046;-84
2022/03/01 06:00:34;;;;;;;0.00;0.00;;;;;21.40;100287.00;;;;4838991;29;20043;-83
2022/03/01 06:03:04;;;;;;;0.00;0.00;;;;;21.50;100277.00;;;;4824858;29;20468;-82
2022/03/01 06:05:36;;;;;;;0.00;0.00;;;;;21.50;100275.00;;;;4817743;29;20491;-82
2022/03/01 06:08:06;;;;;;;0.00;0.00;;;;;21.50;100288.00;;;;4817186;29;20086;-82
2022/03/01 06:10:35;;;;;;;0.00;0.00;;;;;21.50;100287.00;;;;4818964;29;20050;-82
2022/03/01 06:13:05;;;;;;;0.00;0.00;;;;;21.40;100275.00;;;;4818440;29;20058;-81
2022/03/01 06:15:35;;;;;;;0.00;0.00;;;;;21.40;100287.00;;;;4818473;29;20425;-81
2022/03/01 06:18:04;;;;;;;0.00;0.00;;;;;21.40;100275.00;;;;4817912;29;20147;-81
2022/03/01 06:20:34;;;;;;;0.00;0.00;;;;;21.30;100296.00;;;;4817325;29;20054;-81
2022/03/01 06:23:03;;;;;;;0.00;0.00;;;;;21.30;100290.00;;;;4818179;29;20072;-81
2022/03/01 06:25:36;;;;;;;0.00;0.00;;;;;21.30;100268.00;;;;4818555;29;20050;-81
2022/03/01 06:28:06;;;;;;;0.00;0.00;;;;;21.30;100287.00;;;;4817503;29;20061;-81
2022/03/01 06:30:37;;;;;;;0.00;0.00;;;;;21.40;100288.00;;;;4817041;29;20050;-81
2022/03/01 06:33:08;;;;;;;0.00;0.00;;;;;21.30;100278.00;;;;4817762;29;20058;-80
2022/03/01 06:35:37;;;;;;;0.00;0.00;;;;;21.30;100273.00;;;;4818268;29;20061;-81
2022/03/01 06:38:06;;;;;;;0.00;0.00;;;;;21.20;100298.00;;;;4816776;29;20107;-80
2022/03/01 06:40:36;;;;;;;0.00;0.00;;;;;21.20;100288.00;;;;4816909;29;20514;-81
2022/03/01 06:43:06;;;;;;;0.00;0.00;;;;;21.30;100288.00;;;;4818622;29;20404;-81
2022/03/01 06:45:35;;;;;;;0.00;0.00;;;;;21.20;100290.00;;;;4816740;29;20054;-80
2022/03/01 06:48:05;;;;;;;0.00;0.00;;;;;21.10;100298.00;;;;4817983;29;20045;-81
2022/03/01 06:50:34;;;;;;;0.00;0.00;;;;;21.10;100288.00;;;;4816887;29;20062;-83
2022/03/01 06:53:04;;;;;;;0.00;0.00;;;;;21.10;100285.00;;;;4818024;29;20625;-83
2022/03/01 06:55:34;;;;;;;0.00;0.00;;;;;21.00;100285.00;;;;4816450;29;20058;-82
2022/03/01 06:58:03;;;;;;;0.00;0.00;;;;;20.80;100278.00;;;;4801759;29;20058;-83
2022/03/01 07:00:33;;;;;;;0.00;0.00;;;;;20.80;100309.00;;;;4818636;29;20062;-82
2022/03/01 07:03:05;;;;;;;0.00;0.00;;;;;20.70;100287.00;;;;4818259;29;20038;-83
2022/03/01 07:05:35;;;;;;;0.00;0.00;;;;;20.70;100302.00;;;;4818161;29;20054;-83
2022/03/01 07:08:05;;;;;;;0.00;0.00;;;;;20.60;100285.00;;;;4817922;29;20051;-85
2022/03/01 07:10:36;;;;;;;3.77;0.10;;;;;20.60;100298.00;;;;4817280;29;20121;-81
2022/03/01 07:13:05;;;;;;;0.00;0.00;;;;;20.60;100296.00;;;;4818005;29;20060;-83
2022/03/01 07:15:37;;;;;;;0.00;0.00;;;;;20.50;100312.00;;;;4817999;29;20052;-85
2022/03/01 07:18:12;;;;;;;0.00;0.00;;;;;20.50;100297.00;;;;4817767;29;20064;-82
2022/03/01 07:20:43;;;;;;;0.00;0.00;;;;;20.50;100299.00;;;;4817066;29;20403;-83
2022/03/01 07:23:15;;;;;;;0.00;0.00;;;;;20.50;100313.00;;;;4818506;29;20050;-84
2022/03/01 07:25:45;;;;;;;0.00;0.00;;;;;20.50;100292.00;;;;4820208;29;20050;-83
2022/03/01 07:28:14;;;;;;;0.00;0.00;;;;;20.50;100295.00;;;;4821101;29;20107;-83
2022/03/01 07:30:44;;;;;;;0.00;0.00;;;;;20.50;100304.00;;;;4820941;29;20185;-82
2022/03/01 07:33:14;;;;;;;0.00;0.00;;;;;20.50;100309.00;;;;4820428;29;20062;-82
2022/03/01 07:35:43;;;;;;;0.00;0.00;;;;;20.50;100300.00;;;;4820675;29;20551;-82
2022/03/01 07:38:13;;;;;;;0.00;0.00;;;;;20.50;100311.00;;;;4805161;29;20162;-82
2022/03/01 07:40:42;;;;;;;0.00;0.00;;;;;20.40;100320.00;;;;4814657;29;20075;-82
2022/03/01 07:43:12;;;;;;;0.00;0.00;;;;;20.50;100323.00;;;;4839162;29;20054;-82
2022/03/01 07:45:41;;;;;;;0.00;0.00;;;;;20.50;100313.00;;;;4838677;29;20050;-82
2022/03/01 07:48:12;;;;;;;0.00;0.00;;;;;20.50;100314.00;;;;4821875;29;20403;-82
2022/03/01 07:50:42;;;;;;;0.00;0.00;;;;;20.50;100291.00;;;;4839012;29;20050;-82
2022/03/01 07:53:11;;;;;;;0.00;0.00;;;;;20.40;100311.00;;;;4838700;29;20042;-82
2022/03/01 07:55:46;;;;;;;0.00;0.00;;;;;20.50;100318.00;;;;4839412;29;20099;-82
2022/03/01 07:58:16;;;;;;;0.00;0.00;;;;;20.50;100319.00;;;;4839433;29;20103;-82
2022/03/01 08:00:45;;;;;;;0.00;0.00;;;;;20.50;100319.00;;;;4838015;29;20042;-83
2022/03/01 08:03:18;;;;;;;0.00;0.00;;;;;20.40;100316.00;;;;4839525;29;20045;-83
2022/03/01 08:05:51;;;;;;;0.00;0.00;;;;;20.40;100333.00;;;;4839020;29;20544;-85
2022/03/01 08:08:21;;;;;;;0.00;0.00;;;;;20.40;100330.00;;;;4839164;29;20050;-84
2022/03/01 08:10:52;;;;;;;0.00;0.00;;;;;20.40;100323.00;;;;4839252;29;20395;-84
2022/03/01 08:13:40;;;;;;;0.00;0.00;;;;;20.50;100325.00;;;;4839300;29;20128;-84
2022/03/01 08:16:10;;;;;;;0.00;0.00;;;;;20.40;100346.00;;;;4822287;29;20065;-84
2022/03/01 08:18:40;;;;;;;0.00;0.00;;;;;20.50;100331.00;;;;4839125;29;20054;-85
2022/03/01 08:21:09;;;;;;;0.00;0.00;;;;;20.40;100323.00;;;;4838801;29;20057;-86
2022/03/01 08:23:39;;;;;;;0.00;0.00;;;;;20.40;100342.00;;;;4838584;29;20054;-83
2022/03/01 08:26:09;;;;;;;0.00;0.00;;;;;20.50;100355.00;;;;4838408;29;20064;-84
2022/03/01 08:28:40;;;;;;;0.00;0.00;;;;;20.50;100347.00;;;;4831464;29;20045;-85
2022/03/01 08:31:10;;;;;;;0.00;0.00;;;;;20.40;100343.00;;;;4838278;29;20057;-84
2022/03/01 08:33:39;;;;;;;0.00;0.00;;;;;20.50;100344.00;;;;4837900;29;20061;-82
2022/03/01 08:36:17;;;;;;;0.00;0.00;;;;;20.50;100346.00;;;;4848132;29;20041;-82
2022/03/01 08:38:46;;;;;;;0.00;0.00;;;;;20.50;100347.00;;;;4845769;29;20057;-83
2022/03/01 08:41:16;;;;;;;0.00;0.00;;;;;20.40;100354.00;;;;4839132;29;20054;-83
2022/03/01 08:43:49;;;;;;;0.00;0.00;;;;;20.40;100356.00;;;;4838458;29;20073;-84
2022/03/01 08:46:19;;;;;;;0.00;0.00;;;;;20.40;100352.00;;;;4821854;29;20046;-82
2022/03/01 08:48:53;;;;;;;0.00;0.00;;;;;20.30;100360.00;;;;4838036;29;20085;-83
2022/03/01 08:51:25;;;;;;;0.00;0.00;;;;;20.30;100347.00;;;;4806767;29;20157;-84
2022/03/01 08:53:55;;;;;;;0.00;0.00;;;;;20.30;100376.00;;;;4838758;29;20042;-83
2022/03/01 08:56:25;;;;;;;0.00;0.00;;;;;20.30;100369.00;;;;4837711;29;20114;-82
2022/03/01 08:58:55;;;;;;;0.00;0.00;;;;;20.30;100359.00;;;;4821366;29;20049;-81
2022/03/01 09:01:24;;;;;;;0.00;0.00;;;;;20.30;100348.00;;;;4837875;29;20057;-81
2022/03/01 09:03:54;;;;;;;0.00;0.00;;;;;20.30;100361.00;;;;4838282;29;20053;-83
2022/03/01 09:06:29;;;;;;;0.00;0.00;;;;;20.30;100370.00;;;;4838238;29;20049;-83
2022/03/01 09:08:59;;;;;;;0.00;0.00;;;;;20.10;100358.00;;;;4806291;29;20853;-84
2022/03/01 09:11:32;;;;;;;0.00;0.00;;;;;20.30;100358.00;;;;4837718;29;20049;-84
2022/03/01 09:14:02;;;;;;;0.00;0.00;;;;;20.30;100353.00;;;;4837723;29;20081;-84
2022/03/01 09:16:35;;;;;;;0.00;0.00;;;;;20.30;100354.00;;;;4837680;29;20080;-84
2022/03/01 09:19:05;;;;;;;0.00;0.00;;;;;20.30;100364.00;;;;4822072;29;20058;-84
2022/03/01 09:21:35;;;;;;;0.00;0.00;;;;;20.40;100353.00;;;;4837778;29;20057;-81
2022/03/01 09:24:04;;;;;;;0.00;0.00;;;;;20.40;100352.00;;;;4837404;29;20054;-82
2022/03/01 09:26:34;;;;;;;0.00;0.00;;;;;20.40;100367.00;;;;4837332;29;20403;-82
2022/03/01 09:29:04;;;;;;;0.00;0.00;;;;;20.50;100377.00;;;;4837690;29;20145;-84
2022/03/01 09:31:34;;;;;;;0.00;0.00;;;;;20.50;100377.00;;;;4838021;29;20157;-82
2022/03/01 09:34:03;;;;;;;0.00;0.00;;;;;20.60;100376.00;;;;4837602;29;20081;-82
2022/03/01 09:36:33;;;;;;;0.00;0.00;;;;;20.60;100375.00;;;;4836885;29;20054;-82
2022/03/01 09:39:03;;;;;;;0.00;0.00;;;;;20.70;100369.00;;;;4836748;29;20042;-81
2022/03/01 09:41:37;;;;;;;0.00;0.00;;;;;20.70;100371.00;;;;4837263;29;20570;-85
2022/03/01 09:44:07;;;;;;;0.00;0.00;;;;;20.70;100360.00;;;;4836602;29;20042;-83
2022/03/01 09:46:38;;;;;;;0.00;0.00;;;;;20.70;100395.00;;;;4821041;29;20046;-83
2022/03/01 09:49:09;;;;;;;0.00;0.00;;;;;20.80;100371.00;;;;4835763;29;20053;-83
2022/03/01 09:51:43;;;;;;;0.00;0.00;;;;;20.70;100390.00;;;;4820194;29;20053;-83
2022/03/01 09:54:13;;;;;;;0.00;0.00;;;;;20.70;100387.00;;;;4836341;29;20460;-83
2022/03/01 09:56:44;;;;;;;0.00;0.00;;;;;20.80;100386.00;;;;4836443;29;20079;-83
2022/03/01 09:59:14;;;;;;;0.00;0.00;;;;;20.80;100388.00;;;;4820222;29;20411;-83
2022/03/01 10:01:53;;;;;;;0.00;0.00;;;;;20.80;100381.00;;;;4820626;29;20061;-82
2022/03/01 10:04:25;;;;;;;0.00;0.00;;;;;20.80;100369.00;;;;4820540;29;20110;-83
2022/03/01 10:06:55;;;;;;;0.00;0.00;;;;;20.90;100403.00;;;;4836294;29;20050;-83
2022/03/01 10:09:26;;;;;;;0.00;0.00;;;;;20.90;100412.00;;;;4836822;29;20137;-82
2022/03/01 10:12:04;;;;;;;0.00;0.00;;;;;20.90;100413.00;;;;4835937;29;20560;-83
2022/03/01 10:14:34;;;;;;;0.00;0.00;;;;;20.90;100400.00;;;;4821256;29;20042;-83
2022/03/01 10:17:16;;;;;;;0.00;0.00;;;;;21.00;100402.00;;;;4820607;29;20537;-81
2022/03/01 10:19:45;;;;;;;0.00;0.00;;;;;21.00;100398.00;;;;4837279;29;20042;-82
2022/03/01 10:22:15;;;;;;;0.00;0.00;;;;;21.10;100407.00;;;;4836684;29;20137;-83
2022/03/01 10:24:48;;;;;;;0.00;0.00;;;;;21.10;100397.00;;;;4820785;29;20119;-82
2022/03/01 10:27:28;;;;;;;0.00;0.00;;;;;21.10;100412.00;;;;4835397;29;20050;-85
2022/03/01 10:30:03;;;;;;;0.00;0.00;;;;;21.10;100406.00;;;;4836749;29;20081;-82
2022/03/01 10:32:34;;;;;;;0.00;0.00;;;;;21.20;100402.00;;;;4836435;29;20703;-84
2022/03/01 10:35:10;;;;;;;0.00;0.00;;;;;21.20;100425.00;;;;4819997;29;20076;-83
2022/03/01 10:37:40;;;;;;;0.00;0.00;;;;;21.20;100404.00;;;;4836906;29;20121;-84
2022/03/01 10:40:16;;;;;;;0.00;0.00;;;;;21.30;100414.00;;;;4837098;29;20054;-84
2022/03/01 10:43:11;;;;;;;0.00;0.00;;;;;21.30;100417.00;;;;4836323;29;20103;-81
2022/03/01 10:45:43;;;;;;;0.00;0.00;;;;;21.30;100422.00;;;;4836604;29;20049;-82
2022/03/01 10:48:39;;;;;;;0.00;0.00;;;;;21.30;100417.00;;;;4820711;29;20056;-82
2022/03/01 10:51:10;;;;;;;0.00;0.00;;;;;21.30;100426.00;;;;4836749;29;20831;-82
2022/03/01 10:53:46;;;;;;;;;;;;;21.40;100431.00;;;;4836382;29;20070;-82
2022/03/01 10:56:17;;;;;;;0.00;0.00;;;;;21.50;100425.00;;;;4836657;29;20395;-81
2022/03/01 10:58:50;;;;;;;0.00;0.00;;;;;21.60;100415.00;;;;4836082;29;20049;-81
2022/03/01 11:01:21;;;;;;;0.00;0.00;;;;;21.60;100442.00;;;;4840234;29;20057;-82
2022/03/01 11:03:51;;;;;;;0.00;0.00;;;;;21.60;100416.00;;;;4839580;29;20050;-82
2022/03/01 11:06:21;;;;;;;0.00;0.00;;;;;21.40;100434.00;;;;4823990;29;20098;-82
2022/03/01 11:08:52;;;;;;;0.00;0.00;;;;;21.40;100436.00;;;;4824518;29;20053;-85
2022/03/01 11:11:25;;;;;;;0.00;0.00;;;;;21.30;100428.00;;;;4840265;29;20042;-82
2022/03/01 11:13:57;;;;;;;0.00;0.00;;;;;21.10;100443.00;;;;4849774;29;20046;-81
2022/03/01 11:16:43;;;;;;;0.00;0.00;;;;;21.20;100458.00;;;;4843384;29;20132;-84
2022/03/01 11:19:29;;;;;;;0.00;0.00;;;;;21.10;100452.00;;;;4822658;29;20096;-83
2022/03/01 11:22:05;;;;;;;0.00;0.00;;;;;21.20;100464.00;;;;4839475;29;20049;-82
2022/03/01 11:24:34;;;;;;;0.00;0.00;;;;;21.30;100456.00;;;;4822367;29;20065;-83
2022/03/01 11:27:11;;;;;;;0.00;0.00;;;;;21.10;100463.00;;;;4836703;29;20583;-83
2022/03/01 11:29:41;;;;;;;0.00;0.00;;;;;21.10;100463.00;;;;4839157;29;20041;-81
2022/03/01 11:32:17;;;;;;;0.00;0.00;;;;;21.30;100473.00;;;;4822777;29;20426;-84
2022/03/01 11:34:47;;;;;;;0.00;0.00;;;;;21.30;100459.00;;;;4840190;29;20053;-81
2022/03/01 11:37:22;;;;;;;0.00;0.00;;;;;21.30;100461.00;;;;4823256;29;20069;-82
2022/03/01 11:40:04;;;;;;;0.00;0.00;;;;;21.50;100470.00;;;;4839036;29;20050;-81
2022/03/01 11:42:34;;;;;;;0.00;0.00;;;;;21.60;100473.00;;;;4822947;29;20429;-81
2022/03/01 11:45:10;;;;;;;0.00;0.00;;;;;21.50;100473.00;;;;4822476;29;20053;-84
2022/03/01 11:47:40;;;;;;;0.00;0.00;;;;;21.50;100480.00;;;;4836930;29;20042;-84
2022/03/01 11:50:20;;;;;;;0.00;0.00;;;;;21.50;100488.00;;;;4823862;29;20845;-84
2022/03/01 11:52:58;;;;;;;0.00;0.00;;;;;21.50;100475.00;;;;4838938;29;20050;-83
2022/03/01 11:55:41;;;;;;;0.00;0.00;;;;;21.60;100485.00;;;;4838858;29;20125;-80
2022/03/01 11:58:12;;;;;;;0.00;0.00;;;;;21.70;100494.00;;;;4821886;29;20068;-81
2022/03/01 12:00:46;;;;;;;0.00;0.00;;;;;21.60;100483.00;;;;4838430;29;20207;-81
2022/03/01 12:03:27;;;;;;;0.00;0.00;;;;;21.60;100476.00;;;;4838794;29;20126;-84
2022/03/01 12:05:58;;;;;;;0.00;0.00;;;;;21.70;100476.00;;;;4839545;29;20054;-85
2022/03/01 12:08:29;;;;;;;0.00;0.00;;;;;21.70;100495.00;;;;4838976;29;20111;-81
2022/03/01 12:11:04;;;;;;;;;;;;;21.80;100504.00;;;;4838926;29;20042;-83
2022/03/01 12:13:38;;;;;;;0.00;0.00;;;;;21.80;100496.00;;;;4839199;29;19934;-82
2022/03/01 12:16:10;;;;;;;0.00;0.00;;;;;21.80;100506.00;;;;4839226;29;20046;-82
2022/03/01 12:18:43;;;;;;;0.00;0.00;;;;;21.80;100501.00;;;;4838468;29;20073;-83
2022/03/01 12:21:14;;;;;;;0.00;0.00;;;;;21.80;100506.00;;;;4838330;29;20045;-83
2022/03/01 12:23:49;;;;;;;;;;;;;21.90;100500.00;;;;4838701;29;20830;-85
2022/03/01 12:26:18;;;;;;;0.00;0.00;;;;;22.20;100500.00;;;;4839203;29;19951;-82
2022/03/01 12:28:54;;;;;;;0.00;0.00;;;;;22.30;100504.00;;;;4821576;29;20081;-81
2022/03/01 12:31:27;;;;;;;0.00;0.00;;;;;22.30;100511.00;;;;4838053;29;20049;-84
2022/03/01 12:34:07;;;;;;;0.00;0.00;;;;;22.40;100521.00;;;;4836972;29;20534;-83
2022/03/01 12:36:41;;;;;;;0.00;0.00;;;;;22.60;100524.00;;;;4831363;29;20046;-82